Barronett, Wisconsin
Current Conditions -  °F | °C
As of 4:15 PM on Monday 26 Jan 2015 (Local Time) from KUBE Reporting Station
Light Snow Light Snow  
Wind Chill: -3°   Ceiling: 1200
Heat Index: -3°   Visibility: 2mi
Dew Point: -3°   Wind: 0mph
Humidity: 100%   Direction: NA
Pressure: 29.76"   Gusts: NA
Location:  45.64°N, 91.99°W
Report Text: KUBE 262215Z AUTO 00000KT 2SM -SN SCT007 OVC012 M03/M03 A2976 RMK AO2
Loading
Personal Weather Stations






























Interactive Weather Map New forecast layout! Learn more

10-Day Weather Forecast

Advertisements
Track Severe Weather on mobile